Time;durP1;ratioP1;P1;durP2;ratioP2;P2;SDS_P1;SDS_P2;PMS_P1;PMS_P2;Temp;Humidity;BMP_temperature;BMP_pressure;BME280_temperature;BME280_humidity;BME280_pressure;Samples;Min_cycle;Max_cycle;Signal;HPM_P1;HPM_P2
2024/03/31 00:00:26;;;;;;;5.80;2.25;;;15.00;95.30;;;;;;4822431;29;20144;-85
2024/03/31 00:02:53;;;;;;;11.25;2.53;;;15.00;95.60;;;;;;4821065;29;20037;-85
2024/03/31 00:05:21;;;;;;;6.50;1.88;;;14.70;95.60;;;;;;4805631;29;20054;-85
2024/03/31 00:07:48;;;;;;;7.82;1.60;;;14.90;96.40;;;;;;4807627;29;20495;-85
2024/03/31 00:10:18;;;;;;;8.18;2.10;;;14.90;96.60;;;;;;4826358;29;20048;-85
2024/03/31 00:12:45;;;;;;;5.78;1.70;;;14.80;97.40;;;;;;4821541;29;20069;-86
2024/03/31 00:15:13;;;;;;;8.57;1.75;;;14.70;96.80;;;;;;4797950;29;20053;-85
2024/03/31 00:17:40;;;;;;;4.47;1.70;;;14.70;97.20;;;;;;4805672;29;20121;-85
2024/03/31 00:20:08;;;;;;;6.45;1.98;;;14.70;97.60;;;;;;4822421;29;20129;-85
2024/03/31 00:22:35;;;;;;;5.30;2.08;;;14.60;97.80;;;;;;4807285;29;20081;-85
2024/03/31 00:25:03;;;;;;;5.32;1.55;;;14.60;97.80;;;;;;4808610;29;20042;-85
2024/03/31 00:27:32;;;;;;;4.57;2.30;;;14.50;98.30;;;;;;4804576;29;20046;-85
2024/03/31 00:29:59;;;;;;;3.80;1.42;;;14.50;98.30;;;;;;4804368;29;20066;-87
2024/03/31 00:32:26;;;;;;;8.98;2.40;;;14.50;98.30;;;;;;4812122;29;20132;-86
2024/03/31 00:34:55;;;;;;;6.05;1.48;;;14.40;98.80;;;;;;4806015;29;20042;-86
2024/03/31 00:37:22;;;;;;;11.73;2.95;;;14.40;99.20;;;;;;4802996;29;20045;-86
2024/03/31 00:39:50;;;;;;;3.97;1.35;;;14.30;99.40;;;;;;4821297;29;20046;-86
2024/03/31 00:42:17;;;;;;;6.30;1.52;;;14.40;99.00;;;;;;4800599;29;20050;-85
2024/03/31 00:44:47;;;;;;;6.07;1.70;;;14.30;98.40;;;;;;4833474;29;20124;-85
2024/03/31 00:47:14;;;;;;;6.70;1.73;;;14.40;97.60;;;;;;4807991;29;20146;-86
2024/03/31 00:49:42;;;;;;;4.68;0.70;;;14.40;97.60;;;;;;4821782;29;20546;-86
2024/03/31 00:52:09;;;;;;;4.45;1.45;;;14.40;97.70;;;;;;4814816;29;20057;-85
2024/03/31 00:54:42;;;;;;;2.70;0.70;;;14.40;97.90;;;;;;4814350;29;20076;-85
2024/03/31 00:57:09;;;;;;;3.38;1.00;;;14.40;97.60;;;;;;4831345;29;20043;-86
2024/03/31 00:59:37;;;;;;;3.60;1.27;;;14.40;97.50;;;;;;4821074;29;20522;-86
2024/03/31 01:02:06;;;;;;;3.50;1.42;;;14.40;97.60;;;;;;4802915;29;20586;-86
2024/03/31 01:04:34;;;;;;;2.83;0.93;;;14.30;97.90;;;;;;4809764;29;20513;-85
2024/03/31 01:07:01;;;;;;;4.07;1.30;;;14.40;97.90;;;;;;4809740;29;20041;-86
2024/03/31 01:09:29;;;;;;;3.35;0.95;;;14.30;98.10;;;;;;4808185;29;20081;-86
2024/03/31 01:11:57;;;;;;;3.88;1.00;;;14.30;98.00;;;;;;4825730;29;20065;-86
2024/03/31 01:14:26;;;;;;;4.55;0.70;;;14.30;97.40;;;;;;4820543;29;20145;-86
2024/03/31 01:16:52;;;;;;;4.55;0.77;;;14.30;97.30;;;;;;4803322;29;20080;-85
2024/03/31 01:19:22;;;;;;;2.70;0.70;;;14.40;97.10;;;;;;4825760;29;20526;-86
2024/03/31 01:21:49;;;;;;;2.80;0.55;;;14.30;97.00;;;;;;4805592;29;20832;-85
2024/03/31 01:24:18;;;;;;;2.95;0.52;;;14.40;96.80;;;;;;4817190;29;20629;-86
2024/03/31 01:26:45;;;;;;;3.42;0.77;;;14.40;96.40;;;;;;4817266;29;20414;-84
2024/03/31 01:29:13;;;;;;;4.47;0.85;;;14.30;96.30;;;;;;4804199;29;20053;-86
2024/03/31 01:31:40;;;;;;;3.78;0.30;;;14.30;96.20;;;;;;4804691;29;20039;-86
2024/03/31 01:34:08;;;;;;;6.00;0.60;;;14.30;96.00;;;;;;4807553;29;20087;-85
2024/03/31 01:36:35;;;;;;;3.95;0.60;;;14.30;95.90;;;;;;4792832;29;20953;-85
2024/03/31 01:39:03;;;;;;;5.80;1.80;;;14.30;96.00;;;;;;4822563;29;20482;-86
2024/03/31 01:41:32;;;;;;;2.78;0.73;;;14.30;95.70;;;;;;4806834;29;20046;-85
2024/03/31 01:44:00;;;;;;;3.10;0.50;;;14.30;95.70;;;;;;4808861;29;20056;-86
2024/03/31 01:46:27;;;;;;;4.85;0.70;;;14.30;95.70;;;;;;4821178;29;20047;-85
2024/03/31 01:48:54;;;;;;;3.78;0.60;;;14.30;95.90;;;;;;4806079;29;20080;-85
2024/03/31 01:51:21;;;;;;;2.75;0.30;;;14.30;95.70;;;;;;4822389;29;20568;-86
2024/03/31 01:53:49;;;;;;;2.53;0.40;;;14.30;95.80;;;;;;4810518;29;20888;-85
2024/03/31 01:56:17;;;;;;;1.98;0.55;;;14.30;95.50;;;;;;4804748;29;20138;-86
2024/03/31 01:58:46;;;;;;;3.33;0.45;;;14.30;95.40;;;;;;4807692;29;20046;-86
2024/03/31 02:01:13;;;;;;;3.88;0.50;;;14.20;95.70;;;;;;4814487;29;20403;-86
2024/03/31 02:03:41;;;;;;;4.05;0.60;;;14.20;95.40;;;;;;4814989;29;20081;-86
2024/03/31 02:06:08;;;;;;;3.63;0.93;;;14.20;95.30;;;;;;4817626;29;20054;-85
2024/03/31 02:08:36;;;;;;;4.95;0.70;;;14.30;95.30;;;;;;4804140;29;20042;-86
2024/03/31 02:11:03;;;;;;;3.75;0.88;;;14.20;95.20;;;;;;4801405;29;20038;-86
2024/03/31 02:13:31;;;;;;;2.15;0.60;;;14.20;95.00;;;;;;4813626;29;20045;-86
2024/03/31 02:16:00;;;;;;;3.95;0.40;;;14.20;94.90;;;;;;4806304;29;20045;-85
2024/03/31 02:18:28;;;;;;;6.90;0.82;;;14.20;94.80;;;;;;4778686;29;20407;-84
2024/03/31 02:20:55;;;;;;;4.53;0.50;;;14.20;94.70;;;;;;4817159;29;20038;-85
2024/03/31 02:23:23;;;;;;;6.75;0.60;;;14.20;94.40;;;;;;4800895;29;20511;-85
2024/03/31 02:25:51;;;;;;;3.42;0.40;;;14.20;94.60;;;;;;4811139;29;20050;-86
2024/03/31 02:28:19;;;;;;;2.13;0.60;;;14.20;94.70;;;;;;4823697;29;20038;-85
2024/03/31 02:30:45;;;;;;;1.55;0.50;;;14.20;94.80;;;;;;4792325;29;20077;-86
2024/03/31 02:33:15;;;;;;;4.03;0.63;;;14.20;94.80;;;;;;4822998;29;20085;-86
2024/03/31 02:35:42;;;;;;;5.50;1.35;;;14.20;94.80;;;;;;4814076;29;20050;-85
2024/03/31 02:38:10;;;;;;;4.90;0.68;;;14.10;94.30;;;;;;4813143;29;20510;-85
2024/03/31 02:40:37;;;;;;;6.63;0.60;;;14.10;94.40;;;;;;4802513;29;20050;-85
2024/03/31 02:43:07;;;;;;;4.15;0.60;;;14.10;94.00;;;;;;4805017;29;20102;-86
2024/03/31 02:45:34;;;;;;;1.95;0.30;;;14.10;94.10;;;;;;4817533;29;20141;-86
2024/03/31 02:48:02;;;;;;;3.40;0.35;;;14.10;94.10;;;;;;4796682;29;20788;-86
2024/03/31 02:50:31;;;;;;;3.65;0.50;;;14.10;94.20;;;;;;4806605;29;20618;-85
2024/03/31 02:52:59;;;;;;;2.00;0.30;;;14.10;93.90;;;;;;4812692;29;20050;-85
2024/03/31 02:55:26;;;;;;;4.65;0.52;;;14.10;93.60;;;;;;4828437;29;20060;-84
2024/03/31 02:57:53;;;;;;;5.15;0.30;;;14.10;93.30;;;;;;4808753;29;20707;-84
2024/03/31 03:00:20;;;;;;;2.83;0.50;;;14.10;93.50;;;;;;4815564;29;20499;-85
2024/03/31 03:02:48;;;;;;;3.38;0.40;;;14.10;92.90;;;;;;4802721;29;20072;-85
2024/03/31 03:05:15;;;;;;;2.80;0.20;;;14.10;93.20;;;;;;4819778;29;20038;-86
2024/03/31 03:07:44;;;;;;;5.80;0.50;;;14.10;92.60;;;;;;4808356;29;20084;-85
2024/03/31 03:10:11;;;;;;;2.45;0.68;;;14.10;92.40;;;;;;4819050;29;20640;-86
2024/03/31 03:12:39;;;;;;;5.20;0.50;;;14.00;92.00;;;;;;4797663;29;20074;-84
2024/03/31 03:15:07;;;;;;;2.28;0.32;;;14.00;91.50;;;;;;4818837;29;20092;-86
2024/03/31 03:17:35;;;;;;;3.15;0.50;;;14.00;91.10;;;;;;4809122;29;20560;-86
2024/03/31 03:20:03;;;;;;;3.25;0.50;;;14.00;91.40;;;;;;4804018;29;20045;-86
2024/03/31 03:22:31;;;;;;;1.80;0.30;;;14.00;91.10;;;;;;4801070;29;20054;-83
2024/03/31 03:24:59;;;;;;;5.43;0.80;;;14.00;90.90;;;;;;4783072;29;20070;-87
2024/03/31 03:27:28;;;;;;;2.03;0.40;;;14.00;91.40;;;;;;4805983;29;20053;-86
2024/03/31 03:29:55;;;;;;;4.30;0.73;;;13.90;90.80;;;;;;4832528;29;20566;-87
2024/03/31 03:32:23;;;;;;;2.85;0.40;;;13.90;90.60;;;;;;4801706;29;20060;-86
2024/03/31 03:34:51;;;;;;;5.45;0.40;;;13.90;90.00;;;;;;4815703;29;20530;-87
2024/03/31 03:37:19;;;;;;;2.92;0.40;;;13.90;90.00;;;;;;4831436;29;20564;-86
2024/03/31 03:39:48;;;;;;;3.60;0.22;;;13.80;90.10;;;;;;4799830;29;20618;-86
2024/03/31 03:42:16;;;;;;;3.60;0.30;;;13.80;90.00;;;;;;4812309;29;20057;-86
2024/03/31 03:44:44;;;;;;;2.92;0.20;;;13.80;89.70;;;;;;4814731;29;20146;-87
2024/03/31 03:47:11;;;;;;;4.60;0.57;;;13.80;89.80;;;;;;4800629;29;20065;-86
2024/03/31 03:49:39;;;;;;;3.50;0.30;;;13.70;90.10;;;;;;4803270;29;20066;-85
2024/03/31 03:52:06;;;;;;;3.33;0.30;;;13.70;91.20;;;;;;4802216;29;20615;-85
2024/03/31 03:54:34;;;;;;;3.20;0.50;;;13.60;91.10;;;;;;4808810;29;20148;-86
2024/03/31 03:57:01;;;;;;;2.15;0.20;;;13.60;90.90;;;;;;4823601;29;20044;-87
2024/03/31 03:59:30;;;;;;;3.10;0.40;;;13.60;91.20;;;;;;4813763;29;20072;-86
2024/03/31 04:01:57;;;;;;;1.70;0.30;;;13.60;91.10;;;;;;4813388;29;20522;-87
2024/03/31 04:04:25;;;;;;;8.07;0.30;;;13.60;90.80;;;;;;4818854;29;20050;-87
2024/03/31 04:06:52;;;;;;;4.15;0.30;;;13.50;92.00;;;;;;4801102;29;20038;-87
2024/03/31 04:09:20;;;;;;;4.38;0.30;;;13.50;92.20;;;;;;4817232;29;20034;-87
2024/03/31 04:11:47;;;;;;;3.97;0.20;;;13.50;92.80;;;;;;4815563;29;20100;-87
2024/03/31 04:14:15;;;;;;;4.20;0.38;;;13.50;92.80;;;;;;4806786;29;20142;-87
2024/03/31 04:16:43;;;;;;;8.65;0.82;;;13.40;92.20;;;;;;4804868;29;20108;-85
2024/03/31 04:19:11;;;;;;;8.55;0.40;;;13.40;93.20;;;;;;4818446;29;20046;-86
2024/03/31 04:21:39;;;;;;;3.97;0.30;;;13.40;93.10;;;;;;4802476;29;20045;-86
2024/03/31 04:24:07;;;;;;;4.05;0.40;;;13.40;93.90;;;;;;4802742;29;20472;-87
2024/03/31 04:26:34;;;;;;;4.75;0.90;;;13.40;93.60;;;;;;4818518;29;20503;-86
2024/03/31 04:29:01;;;;;;;6.13;0.35;;;13.30;93.10;;;;;;4808789;29;20584;-87
2024/03/31 04:31:28;;;;;;;2.47;0.30;;;13.30;93.70;;;;;;4803208;29;20137;-86
2024/03/31 04:33:57;;;;;;;1.88;0.47;;;13.30;93.40;;;;;;4805102;29;20076;-86
2024/03/31 04:36:24;;;;;;;7.38;1.02;;;13.30;94.40;;;;;;4823931;29;20118;-86
2024/03/31 04:38:52;;;;;;;1.75;0.43;;;13.20;94.70;;;;;;4797840;29;20419;-86
2024/03/31 04:41:19;;;;;;;4.45;0.30;;;13.20;94.80;;;;;;4815771;29;20083;-87
2024/03/31 04:43:47;;;;;;;3.35;0.30;;;13.20;94.50;;;;;;4812552;29;20504;-87
2024/03/31 04:46:13;;;;;;;1.70;0.45;;;13.20;94.40;;;;;;4787439;29;20137;-87
2024/03/31 04:48:41;;;;;;;4.38;1.23;;;13.20;95.10;;;;;;4812583;29;20062;-85
2024/03/31 04:51:10;;;;;;;2.42;0.20;;;13.10;94.60;;;;;;4824950;29;20054;-86
2024/03/31 04:53:37;;;;;;;3.72;0.50;;;13.10;93.20;;;;;;4801877;29;20046;-85
2024/03/31 04:56:07;;;;;;;6.40;0.30;;;13.20;93.10;;;;;;4800717;29;20562;-87
2024/03/31 04:58:34;;;;;;;6.93;1.00;;;13.20;93.60;;;;;;4808978;29;20054;-87
2024/03/31 05:01:02;;;;;;;3.30;0.75;;;13.20;93.20;;;;;;4802520;29;20129;-87
2024/03/31 05:03:29;;;;;;;5.55;0.80;;;13.20;93.50;;;;;;4822020;29;20152;-88
2024/03/31 05:05:57;;;;;;;3.03;0.60;;;13.20;94.10;;;;;;4813402;29;20138;-87
2024/03/31 05:08:25;;;;;;;7.20;1.20;;;13.20;94.60;;;;;;4809779;29;20116;-86
2024/03/31 05:10:56;;;;;;;5.07;1.33;;;13.20;94.00;;;;;;4815627;29;20111;-87
2024/03/31 05:13:27;;;;;;;4.78;1.17;;;13.20;94.30;;;;;;4814346;29;20058;-89
2024/03/31 05:16:00;;;;;;;12.07;1.50;;;13.20;94.30;;;;;;4814260;29;20045;-90
2024/03/31 05:18:27;;;;;;;4.13;0.88;;;13.20;95.40;;;;;;4807457;29;20145;-90
2024/03/31 05:20:57;;;;;;;4.75;1.38;;;13.20;95.50;;;;;;4814471;29;20853;-91
2024/03/31 05:23:25;;;;;;;6.10;1.52;;;13.20;95.00;;;;;;4822133;29;20107;-89
2024/03/31 05:25:55;;;;;;;4.00;1.27;;;13.30;95.40;;;;;;4808891;29;20142;-89
2024/03/31 05:28:22;;;;;;;2.78;1.15;;;13.30;95.80;;;;;;4802651;29;20053;-90
2024/03/31 05:30:50;;;;;;;5.03;1.58;;;13.30;96.70;;;;;;4803501;29;20486;-88
2024/03/31 05:33:17;;;;;;;4.78;0.88;;;13.30;96.70;;;;;;4806452;29;20102;-89
2024/03/31 05:35:56;;;;;;;3.88;0.88;;;13.30;96.20;;;;;;4808331;29;20107;-88
2024/03/31 05:38:26;;;;;;;3.08;0.80;;;13.30;96.20;;;;;;4798045;29;20047;-87
2024/03/31 05:41:01;;;;;;;8.50;1.00;;;13.30;94.80;;;;;;4809427;29;20133;-87
2024/03/31 05:43:27;;;;;;;5.65;0.60;;;13.40;95.00;;;;;;4833179;29;20099;-87
2024/03/31 05:45:55;;;;;;;2.55;0.70;;;13.40;93.70;;;;;;4819105;29;20042;-87
2024/03/31 05:48:22;;;;;;;3.72;0.70;;;13.40;93.90;;;;;;4812148;29;20049;-88
2024/03/31 05:50:53;;;;;;;4.20;0.60;;;13.50;93.70;;;;;;4808766;29;20053;-87
2024/03/31 05:53:22;;;;;;;5.15;0.52;;;13.60;93.60;;;;;;4807857;29;20632;-86
2024/03/31 05:55:51;;;;;;;4.15;0.40;;;13.60;93.50;;;;;;4830175;29;20329;-87
2024/03/31 05:58:18;;;;;;;2.35;0.63;;;13.60;94.40;;;;;;4825208;29;20050;-88
2024/03/31 06:00:46;;;;;;;4.60;0.68;;;13.60;94.90;;;;;;4833028;29;20133;-87
2024/03/31 06:03:13;;;;;;;3.03;0.50;;;13.60;94.90;;;;;;4811220;29;20058;-87
2024/03/31 06:05:41;;;;;;;4.53;0.40;;;13.60;94.50;;;;;;4811144;29;20042;-88
2024/03/31 06:08:08;;;;;;;3.40;0.55;;;13.60;94.40;;;;;;4836988;29;20050;-87
2024/03/31 06:10:36;;;;;;;2.90;1.05;;;13.70;94.50;;;;;;4807480;29;20049;-88
2024/03/31 06:13:05;;;;;;;5.90;0.50;;;13.70;95.50;;;;;;4818436;29;20042;-88
2024/03/31 06:15:33;;;;;;;4.93;0.35;;;13.80;94.60;;;;;;4821747;29;20046;-87
2024/03/31 06:18:00;;;;;;;2.55;0.40;;;13.80;94.40;;;;;;4805989;29;20102;-87
2024/03/31 06:20:28;;;;;;;4.43;0.73;;;13.80;94.10;;;;;;4803425;29;20789;-87
2024/03/31 06:22:55;;;;;;;5.18;0.40;;;13.90;94.20;;;;;;4818103;29;20054;-87
2024/03/31 06:25:23;;;;;;;7.45;0.40;;;13.90;93.70;;;;;;4805855;29;20046;-87
2024/03/31 06:27:49;;;;;;;4.18;0.25;;;13.90;93.50;;;;;;4823336;29;20042;-87
2024/03/31 06:30:19;;;;;;;5.70;0.30;;;14.00;93.00;;;;;;4817394;29;20065;-88
2024/03/31 06:32:46;;;;;;;8.48;0.50;;;14.00;93.10;;;;;;4829918;29;20046;-88
2024/03/31 06:35:14;;;;;;;4.18;0.50;;;14.10;92.30;;;;;;4804044;29;20044;-87
2024/03/31 06:37:41;;;;;;;2.40;0.52;;;14.20;91.50;;;;;;4803250;29;20086;-92
2024/03/31 06:40:10;;;;;;;2.22;0.43;;;14.20;91.00;;;;;;4816716;29;20102;-94
2024/03/31 06:42:37;;;;;;;3.38;0.30;;;14.30;90.80;;;;;;4804798;29;20065;-86
2024/03/31 06:45:05;;;;;;;2.13;0.30;;;14.30;91.00;;;;;;4815478;29;20198;-87
2024/03/31 06:47:34;;;;;;;2.42;0.43;;;14.40;90.90;;;;;;4821273;29;20214;-88
2024/03/31 06:50:02;;;;;;;3.60;0.28;;;14.50;90.20;;;;;;4816438;29;20141;-87
2024/03/31 06:52:29;;;;;;;2.97;0.30;;;14.60;89.70;;;;;;4796685;29;20488;-87
2024/03/31 06:54:57;;;;;;;3.80;0.85;;;14.70;90.50;;;;;;4802268;29;20070;-86
2024/03/31 06:57:24;;;;;;;3.03;0.22;;;14.80;88.10;;;;;;4806421;29;20138;-87
2024/03/31 06:59:52;;;;;;;3.67;0.20;;;14.90;88.10;;;;;;4802354;29;20033;-87
2024/03/31 07:02:19;;;;;;;1.23;0.30;;;15.00;85.80;;;;;;4811697;29;20046;-87
2024/03/31 07:04:48;;;;;;;3.30;0.30;;;15.10;84.20;;;;;;4810384;29;20042;-86
2024/03/31 07:07:15;;;;;;;2.50;0.30;;;15.20;85.20;;;;;;4817312;29;20046;-87
2024/03/31 07:09:45;;;;;;;2.92;0.40;;;15.40;84.40;;;;;;4821367;29;20050;-87
2024/03/31 07:12:12;;;;;;;4.40;1.05;;;15.50;84.20;;;;;;4802788;29;20046;-85
2024/03/31 07:14:40;;;;;;;2.83;0.20;;;15.50;82.10;;;;;;4818464;29;20400;-86
2024/03/31 07:17:07;;;;;;;4.53;0.40;;;15.60;82.90;;;;;;4802830;29;20053;-86
2024/03/31 07:19:37;;;;;;;2.17;0.55;;;15.60;81.30;;;;;;4804366;29;20122;-85
2024/03/31 07:22:06;;;;;;;2.40;0.40;;;15.70;80.90;;;;;;4816823;29;20513;-86
2024/03/31 07:24:35;;;;;;;3.42;0.30;;;15.70;81.30;;;;;;4824959;29;20064;-87
2024/03/31 07:27:03;;;;;;;4.93;0.55;;;15.80;80.30;;;;;;4799720;29;20443;-87
2024/03/31 07:29:31;;;;;;;2.35;0.30;;;15.80;78.10;;;;;;4807194;29;20129;-87
2024/03/31 07:31:58;;;;;;;3.75;0.30;;;15.80;79.10;;;;;;4807439;29;20059;-87
2024/03/31 07:34:26;;;;;;;3.85;0.52;;;15.90;78.70;;;;;;4800532;29;20053;-86
2024/03/31 07:36:53;;;;;;;2.25;0.52;;;15.90;77.50;;;;;;4820955;29;20575;-86
2024/03/31 07:39:22;;;;;;;4.93;1.00;;;16.20;78.00;;;;;;4818452;29;20159;-87
2024/03/31 07:41:49;;;;;;;3.83;0.30;;;16.00;78.00;;;;;;4811530;29;20051;-86
2024/03/31 07:44:17;;;;;;;5.15;0.70;;;16.10;78.30;;;;;;4800322;29;20070;-87
2024/03/31 07:46:44;;;;;;;4.95;0.30;;;16.30;78.00;;;;;;4805379;29;20034;-86
2024/03/31 07:49:12;;;;;;;3.22;0.30;;;16.60;75.80;;;;;;4796624;29;20066;-83
2024/03/31 07:51:38;;;;;;;2.97;0.35;;;16.90;75.40;;;;;;4817475;29;20069;-84
2024/03/31 07:54:06;;;;;;;3.28;0.55;;;17.10;75.20;;;;;;4807221;29;20047;-84
2024/03/31 07:56:35;;;;;;;4.68;0.40;;;17.30;74.60;;;;;;4799039;29;20046;-83
2024/03/31 07:59:03;;;;;;;6.13;0.40;;;17.40;73.40;;;;;;4811449;29;20042;-86
2024/03/31 08:01:29;;;;;;;6.80;0.63;;;17.50;71.90;;;;;;4802263;29;20038;-86
2024/03/31 08:03:57;;;;;;;3.70;0.45;;;17.70;73.70;;;;;;4784653;29;20510;-86
2024/03/31 08:06:24;;;;;;;6.90;0.40;;;17.80;72.40;;;;;;4806590;29;20046;-88
2024/03/31 08:08:52;;;;;;;6.32;0.65;;;17.90;69.40;;;;;;4807087;29;20513;-84
2024/03/31 08:11:19;;;;;;;7.70;0.77;;;18.10;68.30;;;;;;4823514;29;20042;-85
2024/03/31 08:13:48;;;;;;;5.82;1.08;;;18.20;69.40;;;;;;4816469;29;20042;-84
2024/03/31 08:16:17;;;;;;;4.10;0.20;;;18.50;70.00;;;;;;4802833;29;20042;-84
2024/03/31 08:18:45;;;;;;;5.88;1.15;;;18.60;68.40;;;;;;4805707;29;20043;-85
2024/03/31 08:21:12;;;;;;;6.35;0.65;;;18.70;70.00;;;;;;4822260;29;20149;-87
2024/03/31 08:23:40;;;;;;;6.07;0.82;;;18.80;68.00;;;;;;4811082;29;20136;-85
2024/03/31 08:26:07;;;;;;;3.17;0.43;;;18.90;68.30;;;;;;4808850;29;20062;-88
2024/03/31 08:28:35;;;;;;;8.20;0.57;;;19.20;66.30;;;;;;4806141;29;20440;-86
2024/03/31 08:31:03;;;;;;;5.18;0.38;;;19.30;65.40;;;;;;4822957;29;20042;-88
2024/03/31 08:33:31;;;;;;;6.10;0.38;;;19.40;65.40;;;;;;4805712;29;20050;-86
2024/03/31 08:35:58;;;;;;;1.98;0.40;;;19.50;63.10;;;;;;4819991;29;20049;-87
2024/03/31 08:38:26;;;;;;;10.55;0.70;;;19.70;65.20;;;;;;4800423;29;20038;-86
2024/03/31 08:40:55;;;;;;;8.02;0.63;;;19.80;64.60;;;;;;4802784;29;20057;-88
2024/03/31 08:43:24;;;;;;;5.47;0.45;;;20.00;63.90;;;;;;4823569;29;20097;-84
2024/03/31 08:45:51;;;;;;;6.50;1.70;;;20.10;63.90;;;;;;4817358;29;20141;-85
2024/03/31 08:48:21;;;;;;;5.82;0.43;;;20.10;62.50;;;;;;4815031;29;20768;-86
2024/03/31 08:50:48;;;;;;;6.00;0.38;;;20.20;62.40;;;;;;4815885;29;20054;-87
2024/03/31 08:53:17;;;;;;;7.03;1.33;;;20.20;61.70;;;;;;4805980;29;20042;-88
2024/03/31 08:55:44;;;;;;;6.25;0.60;;;20.40;62.50;;;;;;4810522;29;20042;-87
2024/03/31 08:58:12;;;;;;;4.60;0.20;;;20.40;61.00;;;;;;4820839;29;20042;-87
2024/03/31 09:00:42;;;;;;;5.43;0.50;;;20.50;60.30;;;;;;4808335;29;20076;-86
2024/03/31 09:03:10;;;;;;;6.50;0.68;;;20.50;59.50;;;;;;4816377;29;20074;-87
2024/03/31 09:05:40;;;;;;;8.52;1.08;;;20.60;60.90;;;;;;4822498;29;20046;-87
2024/03/31 09:08:09;;;;;;;16.15;0.85;;;20.80;60.30;;;;;;4799476;29;20047;-87
2024/03/31 09:10:37;;;;;;;4.10;0.30;;;20.80;59.30;;;;;;4802191;29;20522;-87
2024/03/31 09:13:07;;;;;;;9.15;0.80;;;20.80;59.50;;;;;;4816448;29;20518;-87
2024/03/31 09:15:33;;;;;;;5.30;0.52;;;20.90;58.40;;;;;;4824529;29;20045;-86
2024/03/31 09:18:01;;;;;;;5.75;0.55;;;21.00;59.00;;;;;;4802889;29;20053;-85
2024/03/31 09:20:28;;;;;;;9.40;0.47;;;21.10;58.40;;;;;;4824892;29;20038;-84
2024/03/31 09:22:58;;;;;;;5.35;0.45;;;21.20;58.50;;;;;;4803182;29;20047;-86
2024/03/31 09:25:26;;;;;;;11.18;0.52;;;21.30;58.40;;;;;;4809435;29;20070;-86
2024/03/31 09:27:54;;;;;;;9.00;0.50;;;21.40;58.60;;;;;;4827076;29;20489;-88
2024/03/31 09:30:23;;;;;;;8.25;0.75;;;21.50;59.60;;;;;;4807381;29;20092;-84
2024/03/31 09:32:53;;;;;;;6.68;0.47;;;21.40;58.00;;;;;;4815684;29;20069;-85
2024/03/31 09:35:19;;;;;;;9.70;0.43;;;21.50;58.50;;;;;;4824150;29;20046;-83
2024/03/31 09:37:47;;;;;;;4.60;0.50;;;21.60;57.70;;;;;;4810359;29;20126;-86
2024/03/31 09:40:16;;;;;;;4.60;0.50;;;21.40;56.90;;;;;;4812719;29;20049;-85
2024/03/31 09:42:45;;;;;;;5.25;0.85;;;21.40;57.60;;;;;;4807418;29;20137;-87
2024/03/31 09:45:14;;;;;;;5.90;1.08;;;21.50;58.40;;;;;;4823616;29;20053;-85
2024/03/31 09:47:48;;;;;;;9.50;0.90;;;21.80;58.90;;;;;;4806135;29;20054;-85
2024/03/31 09:50:23;;;;;;;6.07;0.43;;;21.90;58.20;;;;;;4821880;29;20534;-86
2024/03/31 09:52:56;;;;;;;6.00;0.73;;;21.90;57.00;;;;;;4820720;29;20045;-86
2024/03/31 09:55:27;;;;;;;8.30;0.60;;;22.10;57.60;;;;;;4833336;29;20419;-86
2024/03/31 09:57:59;;;;;;;5.72;0.75;;;22.00;57.20;;;;;;4808685;29;20484;-87
2024/03/31 10:00:29;;;;;;;6.25;0.98;;;22.10;58.10;;;;;;4822985;29;20132;-86
2024/03/31 10:03:03;;;;;;;7.95;1.13;;;22.10;57.50;;;;;;4824479;29;20049;-84
2024/03/31 10:05:34;;;;;;;8.88;0.77;;;22.30;58.20;;;;;;4810167;29;20622;-85
2024/03/31 10:08:03;;;;;;;5.18;0.68;;;22.20;56.80;;;;;;4808219;29;20467;-85
2024/03/31 10:10:32;;;;;;;8.43;1.52;;;22.30;57.20;;;;;;4815548;29;20563;-86
2024/03/31 10:13:01;;;;;;;6.72;0.65;;;22.50;57.20;;;;;;4810440;29;20406;-87
2024/03/31 10:15:28;;;;;;;4.60;0.70;;;22.50;55.50;;;;;;4810560;29;20046;-85
2024/03/31 10:17:57;;;;;;;5.30;0.40;;;22.70;57.50;;;;;;4806811;29;20133;-83
2024/03/31 10:20:26;;;;;;;10.82;0.65;;;23.00;57.50;;;;;;4809737;29;20054;-86
2024/03/31 10:22:54;;;;;;;5.55;0.95;;;23.10;55.80;;;;;;4813642;29;20109;-93
2024/03/31 10:25:24;;;;;;;10.27;1.23;;;23.10;55.90;;;;;;4805505;29;20526;-92
2024/03/31 10:27:54;;;;;;;9.60;1.65;;;23.00;55.70;;;;;;4804761;29;20510;-92
2024/03/31 10:30:24;;;;;;;6.13;0.30;;;22.90;55.30;;;;;;4826193;29;20590;-93
2024/03/31 10:32:52;;;;;;;6.20;0.63;;;22.70;55.70;;;;;;4810932;29;20821;-88
2024/03/31 10:35:19;;;;;;;10.30;1.02;;;23.00;55.90;;;;;;4806643;29;20499;-93
2024/03/31 10:37:47;;;;;;;7.18;1.27;;;23.10;54.30;;;;;;4812467;29;20419;-95
2024/03/31 10:40:15;;;;;;;8.07;0.50;;;23.20;55.90;;;;;;4811679;29;20070;-86
2024/03/31 10:42:44;;;;;;;5.45;0.98;;;23.10;56.00;;;;;;4825378;29;20445;-87
2024/03/31 10:45:12;;;;;;;11.40;0.57;;;22.90;56.30;;;;;;4808779;29;20050;-87
2024/03/31 10:47:40;;;;;;;5.32;0.70;;;22.90;57.10;;;;;;4814051;29;20053;-87
2024/03/31 10:50:08;;;;;;;9.00;0.68;;;22.90;56.50;;;;;;4824685;29;20041;-91
2024/03/31 10:52:37;;;;;;;12.82;1.67;;;22.80;55.10;;;;;;4825902;29;20483;-91
2024/03/31 10:55:07;;;;;;;12.20;0.65;;;22.90;55.20;;;;;;4827487;29;20052;-87
2024/03/31 10:57:36;;;;;;;8.63;0.95;;;22.90;55.00;;;;;;4812287;29;20082;-88
2024/03/31 11:00:05;;;;;;;13.80;1.80;;;22.90;56.10;;;;;;4819426;29;20047;-93
2024/03/31 11:02:36;;;;;;;9.73;1.25;;;22.80;54.50;;;;;;4830080;29;20042;-90
2024/03/31 11:05:05;;;;;;;8.13;0.98;;;22.80;54.90;;;;;;4811511;29;20042;-92
2024/03/31 11:07:36;;;;;;;8.82;1.05;;;23.10;56.20;;;;;;4808838;29;20042;-89
2024/03/31 11:10:05;;;;;;;7.80;0.55;;;23.30;56.50;;;;;;4804075;29;20065;-89
2024/03/31 11:12:35;;;;;;;4.85;0.40;;;23.40;54.30;;;;;;4805292;29;20514;-91
2024/03/31 11:15:02;;;;;;;16.48;0.95;;;23.40;53.50;;;;;;4810246;29;20052;-92
2024/03/31 11:17:32;;;;;;;11.52;1.10;;;23.20;53.70;;;;;;4826183;29;20487;-93
2024/03/31 11:20:02;;;;;;;8.38;0.60;;;23.00;53.20;;;;;;4823450;29;20060;-87
2024/03/31 11:22:31;;;;;;;7.80;1.10;;;22.90;53.10;;;;;;4827689;29;20038;-89
2024/03/31 11:24:58;;;;;;;7.78;0.98;;;22.80;52.80;;;;;;4805730;29;20533;-90
2024/03/31 11:27:27;;;;;;;8.10;0.52;;;22.90;53.70;;;;;;4821184;29;20042;-87
2024/03/31 11:29:55;;;;;;;5.85;0.40;;;23.10;53.40;;;;;;4822543;29;20065;-90
2024/03/31 11:32:23;;;;;;;10.82;1.08;;;23.20;53.90;;;;;;4805388;29;20831;-94
2024/03/31 11:34:50;;;;;;;11.88;0.77;;;23.20;53.90;;;;;;4826882;29;20506;-90
2024/03/31 11:37:21;;;;;;;9.38;1.15;;;23.30;53.80;;;;;;4801478;29;20049;-85
2024/03/31 11:39:48;;;;;;;9.88;1.10;;;23.30;54.50;;;;;;4807130;29;20129;-88
2024/03/31 11:42:16;;;;;;;7.85;1.27;;;23.30;54.30;;;;;;4813330;29;20051;-91
2024/03/31 11:44:43;;;;;;;14.27;1.25;;;23.50;54.60;;;;;;4806676;29;20052;-87
2024/03/31 11:47:14;;;;;;;6.88;0.57;;;23.90;54.80;;;;;;4808631;29;20050;-89
2024/03/31 11:49:42;;;;;;;10.27;0.70;;;24.00;54.40;;;;;;4822307;29;20122;-90
2024/03/31 11:52:12;;;;;;;11.25;0.32;;;24.00;54.70;;;;;;4820793;29;20050;-87
2024/03/31 11:54:40;;;;;;;7.90;0.75;;;24.30;56.10;;;;;;4813987;29;20045;-87
2024/03/31 11:57:10;;;;;;;11.98;1.15;;;24.40;54.90;;;;;;4827116;29;20137;-89
2024/03/31 11:59:37;;;;;;;11.63;3.58;;;24.10;53.80;;;;;;4829004;29;20109;-94
2024/03/31 12:02:05;;;;;;;6.60;0.70;;;24.20;55.20;;;;;;4827675;29;20144;-87
2024/03/31 12:04:31;;;;;;;14.88;0.93;;;24.10;54.00;;;;;;4817979;29;20566;-89
2024/03/31 12:07:00;;;;;;;5.75;0.30;;;24.10;53.80;;;;;;4824655;29;20130;-88
2024/03/31 12:09:27;;;;;;;14.90;1.02;;;24.20;54.20;;;;;;4806468;29;20122;-86
2024/03/31 12:11:57;;;;;;;7.80;0.88;;;24.40;54.20;;;;;;4819161;29;20048;-90
2024/03/31 12:14:23;;;;;;;16.65;2.38;;;24.40;54.00;;;;;;4821525;29;20563;-85
2024/03/31 12:16:52;;;;;;;13.98;1.50;;;24.60;53.60;;;;;;4810648;29;20056;-91
2024/03/31 12:19:19;;;;;;;15.15;1.67;;;24.50;52.00;;;;;;4787194;29;20118;-93
2024/03/31 12:21:48;;;;;;;12.50;1.33;;;24.60;53.10;;;;;;4803463;29;20050;-86
2024/03/31 12:24:15;;;;;;;10.85;1.10;;;24.60;53.10;;;;;;4829883;29;20093;-88
2024/03/31 12:26:44;;;;;;;10.07;1.65;;;24.60;53.70;;;;;;4811993;29;20046;-92
2024/03/31 12:29:20;;;;;;;11.40;1.45;;;24.70;53.70;;;;;;4800713;29;20046;-94
2024/03/31 12:31:48;;;;;;;17.40;2.65;;;24.50;52.50;;;;;;4814712;29;20463;-89
2024/03/31 12:34:15;;;;;;;15.75;1.38;;;24.50;52.50;;;;;;4819482;29;20057;-90
2024/03/31 12:36:43;;;;;;;8.73;1.35;;;24.50;52.40;;;;;;4817072;29;20053;-90
2024/03/31 12:39:10;;;;;;;12.48;1.45;;;24.70;53.30;;;;;;4814323;29;20287;-87
2024/03/31 12:41:43;;;;;;;17.27;1.05;;;24.70;52.10;;;;;;4813752;29;20050;-92
2024/03/31 12:44:10;;;;;;;15.55;1.52;;;24.80;53.20;;;;;;4812499;29;20038;-87
2024/03/31 12:46:40;;;;;;;17.52;1.77;;;24.70;51.80;;;;;;4818900;29;20053;-92
2024/03/31 12:49:08;;;;;;;11.35;1.25;;;24.70;52.60;;;;;;4821718;29;20052;-91